Time;durP1;ratioP1;P1;durP2;ratioP2;P2;SDS_P1;SDS_P2;PMS_P1;PMS_P2;Temp;Humidity;BMP_temperature;BMP_pressure;BME280_temperature;BME280_humidity;BME280_pressure;Samples;Min_cycle;Max_cycle;Signal;HPM_P1;HPM_P2
2022/06/16 00:00:38;;;;;;;3.00;2.22;;;;;;;17.75;91.08;100631.94;4469621;32;20089;-65
2022/06/16 00:03:07;;;;;;;4.35;2.10;;;;;;;17.83;87.85;100637.84;4469492;32;20405;-65
2022/06/16 00:05:37;;;;;;;7.18;2.42;;;;;;;18.01;85.49;100636.28;4469471;32;20114;-65
2022/06/16 00:08:06;;;;;;;3.97;2.25;;;;;;;18.09;84.67;100639.53;4469371;32;20072;-65
2022/06/16 00:10:36;;;;;;;5.70;2.33;;;;;;;18.04;84.19;100638.84;4469392;32;20370;-65
2022/06/16 00:13:04;;;;;;;3.75;2.50;;;;;;;18.00;85.38;100641.69;4469261;32;20084;-65
2022/06/16 00:15:32;;;;;;;3.85;2.42;;;;;;;17.95;86.77;100638.31;4469412;32;20199;-65
2022/06/16 00:17:59;;;;;;;3.58;2.25;;;;;;;17.86;87.20;100628.88;4469273;32;20110;-65
2022/06/16 00:20:27;;;;;;;4.32;2.20;;;;;;;17.79;87.98;100635.38;4469391;32;20089;-65
2022/06/16 00:22:54;;;;;;;6.10;2.83;;;;;;;17.83;88.04;100626.34;4469405;32;20160;-65
2022/06/16 00:25:22;;;;;;;4.12;2.28;;;;;;;17.82;87.98;100621.94;4469096;32;20126;-65
2022/06/16 00:27:49;;;;;;;4.55;2.90;;;;;;;17.76;88.19;100623.03;4469089;32;20141;-65
2022/06/16 00:30:16;;;;;;;8.15;2.70;;;;;;;17.64;89.31;100623.47;4469270;32;20114;-65
2022/06/16 00:32:44;;;;;;;3.03;2.37;;;;;;;17.62;89.73;100622.66;4469305;32;20164;-65
2022/06/16 00:35:12;;;;;;;4.22;2.55;;;;;;;17.55;91.13;100623.78;4469100;32;20095;-65
2022/06/16 00:37:40;;;;;;;3.83;2.53;;;;;;;17.46;91.72;100614.38;4469201;32;20081;-65
2022/06/16 00:40:09;;;;;;;6.15;2.20;;;;;;;17.50;91.56;100615.97;4469397;32;20093;-65
2022/06/16 00:42:37;;;;;;;5.78;2.72;;;;;;;17.59;91.51;100618.28;4471085;32;20175;-65
2022/06/16 00:45:41;;;;;;;5.65;2.37;;;;;;;17.57;90.85;100620.16;4471058;32;20138;-65
2022/06/16 00:48:15;;;;;;;2.58;2.37;;;;;;;17.50;90.24;100613.31;4470942;32;20201;-65
2022/06/16 00:50:44;;;;;;;7.75;2.70;;;;;;;17.37;91.83;100612.03;4471024;32;20107;-65
2022/06/16 00:53:12;;;;;;;3.70;2.42;;;;;;;17.41;92.27;100608.31;4470938;32;20096;-65
2022/06/16 00:55:39;;;;;;;6.35;2.65;;;;;;;17.50;91.89;100605.31;4470990;32;20096;-65
2022/06/16 00:58:07;;;;;;;5.50;2.70;;;;;;;17.54;92.54;100604.28;4470987;32;20196;-65
2022/06/16 01:00:47;;;;;;;3.62;2.97;;;;;;;17.46;93.50;100595.72;4470968;32;20457;-65
2022/06/16 01:04:51;;;;;;;4.43;3.15;;;;;;;17.35;95.77;100604.09;4471007;32;20096;-65
2022/06/16 01:06:27;;;;;;;3.25;2.47;;;;;;;17.24;99.11;100600.06;4470842;32;20466;-65
2022/06/16 01:08:58;;;;;;;4.90;2.85;;;;;;;17.20;96.85;100586.84;4470749;32;20535;-65
2022/06/16 01:14:38;;;;;;;7.53;3.05;;;;;;;17.21;96.43;100582.44;4470752;32;20187;-67
2022/06/16 01:17:24;;;;;;;3.87;2.37;;;;;;;17.27;96.15;100584.84;4470801;32;20092;-67
2022/06/16 01:20:29;;;;;;;5.37;2.87;;;;;;;17.22;95.02;100581.50;4470754;32;20159;-67
2022/06/16 01:23:30;;;;;;;4.10;2.62;;;;;;;17.31;93.65;100581.12;4470964;32;20097;-67
2022/06/16 01:26:16;;;;;;;5.00;2.90;;;;;;;17.30;94.58;100578.53;4470769;32;20092;-67
2022/06/16 01:29:05;;;;;;;4.20;2.65;;;;;;;17.31;94.67;100575.81;4470895;32;20100;-67
2022/06/16 01:32:30;;;;;;;2.70;2.33;;;;;;;17.11;96.88;100578.34;4470896;32;20072;-67
2022/06/16 01:35:17;;;;;;;4.35;3.05;;;;;;;17.09;97.91;100575.72;4405603;32;20450;-67
2022/06/16 01:38:05;;;;;;;3.37;2.95;;;;;;;17.14;99.82;100572.91;4405514;32;20121;-67
2022/06/16 01:40:47;;;;;;;3.65;2.75;;;;;;;17.24;97.28;100576.09;4463073;32;20112;-67
2022/06/16 01:43:17;;;;;;;3.10;2.75;;;;;;;17.15;98.53;100567.53;4470845;32;20421;-67
2022/06/16 01:45:49;;;;;;;4.32;3.12;;;;;;;16.99;100.00;100566.31;4470867;32;20152;-67
2022/06/16 01:48:20;;;;;;;7.43;3.33;;;;;;;16.87;100.00;100564.97;4470863;32;20476;-67
2022/06/16 01:50:52;;;;;;;3.58;3.05;;;;;;;16.78;100.00;100575.06;4470465;32;20122;-67
2022/06/16 01:53:30;;;;;;;6.35;2.80;;;;;;;16.73;100.00;100572.53;4470704;32;20114;-67
2022/06/16 01:56:16;;;;;;;3.15;2.95;;;;;;;16.67;100.00;100565.63;4470721;32;20102;-67
2022/06/16 01:58:57;;;;;;;6.12;3.40;;;;;;;16.62;100.00;100567.59;4470700;32;20165;-67
2022/06/16 02:01:30;;;;;;;7.15;3.45;;;;;;;16.92;100.00;100573.66;4470759;32;20104;-67
2022/06/16 02:04:06;;;;;;;10.68;3.60;;;;;;;17.04;100.00;100572.37;4470448;32;20068;-67
2022/06/16 02:06:38;;;;;;;6.47;3.42;;;;;;;17.08;100.00;100570.47;4470444;32;20085;-67
2022/06/16 02:09:14;;;;;;;4.18;3.42;;;;;;;17.16;100.00;100573.72;4470381;32;20089;-67
2022/06/16 02:11:44;;;;;;;6.30;3.50;;;;;;;17.09;100.00;100573.06;4470699;32;20167;-67
2022/06/16 02:14:15;;;;;;;5.18;3.20;;;;;;;17.09;100.00;100570.41;4470640;32;20102;-67
2022/06/16 02:16:44;;;;;;;8.77;3.50;;;;;;;17.11;100.00;100568.56;4470638;32;20114;-67
2022/06/16 02:19:15;;;;;;;4.45;3.70;;;;;;;17.09;100.00;100570.41;4470557;32;20085;-67
2022/06/16 02:21:47;;;;;;;4.37;3.50;;;;;;;17.03;100.00;100569.75;4470440;32;20137;-67
2022/06/16 02:24:19;;;;;;;8.80;3.40;;;;;;;17.00;100.00;100573.41;4470421;32;20111;-67
2022/06/16 02:26:48;;;;;;;5.78;3.60;;;;;;;16.92;100.00;100576.31;4470518;32;20081;-67
2022/06/16 02:29:20;;;;;;;4.85;3.08;;;;;;;16.85;100.00;100574.78;4470421;32;20096;-67
2022/06/16 02:32:01;;;;;;;5.50;3.33;;;;;;;16.81;100.00;100572.28;4470504;32;20176;-67
2022/06/16 02:34:32;;;;;;;4.35;3.53;;;;;;;16.80;100.00;100563.44;4470507;32;20088;-67
2022/06/16 02:37:33;;;;;;;3.53;3.22;;;;;;;16.77;100.00;100568.87;4470249;32;20145;-67
2022/06/16 02:40:04;;;;;;;5.65;3.60;;;;;;;16.70;100.00;100573.50;4470053;32;20096;-67
2022/06/16 02:42:47;;;;;;;5.05;3.12;;;;;;;16.67;100.00;100568.28;4470340;32;20549;-67
2022/06/16 02:45:27;;;;;;;4.90;3.37;;;;;;;16.67;100.00;100570.06;4470219;32;20102;-67
2022/06/16 02:48:38;;;;;;;10.45;3.72;;;;;;;16.69;100.00;100566.44;4470098;32;20089;-67
2022/06/16 02:51:41;;;;;;;4.87;3.12;;;;;;;16.56;100.00;100570.44;4405327;32;20449;-67
2022/06/16 02:54:51;;;;;;;6.45;3.53;;;;;;;16.52;100.00;100576.78;4432549;32;20115;-67
2022/06/16 02:57:45;;;;;;;6.43;3.60;;;;;;;16.54;100.00;100588.25;4452547;32;20088;-67
2022/06/16 03:00:17;;;;;;;8.93;3.60;;;;;;;16.53;100.00;100582.97;4464079;32;20083;-67
2022/06/16 03:02:44;;;;;;;7.57;4.50;;;;;;;16.59;100.00;100583.63;4469007;32;20131;-67
2022/06/16 03:05:15;;;;;;;7.53;3.45;;;;;;;16.52;100.00;100587.44;4470017;32;20164;-67
2022/06/16 03:07:44;;;;;;;4.75;3.53;;;;;;;16.54;100.00;100595.34;4470239;32;20088;-67
2022/06/16 03:13:03;;;;;;;4.28;3.78;;;;;;;16.66;100.00;100586.97;4470239;32;20434;-67
2022/06/16 03:15:30;;;;;;;7.93;3.70;;;;;;;16.60;100.00;100590.69;4470101;32;20239;-67
2022/06/16 03:17:57;;;;;;;11.73;4.53;;;;;;;16.68;100.00;100596.66;4469993;32;20109;-67
2022/06/16 03:20:24;;;;;;;6.05;3.80;;;;;;;16.65;100.00;100594.09;4469873;32;20442;-67
2022/06/16 03:22:52;;;;;;;9.35;3.70;;;;;;;16.68;100.00;100601.97;4470177;32;20124;-67
2022/06/16 03:25:19;;;;;;;6.40;3.25;;;;;;;16.80;100.00;100606.03;4469887;32;20109;-67
2022/06/16 03:27:46;;;;;;;9.57;4.15;;;;;;;16.88;100.00;100601.31;4469777;32;20068;-67
2022/06/16 03:30:14;;;;;;;12.18;3.67;;;;;;;16.90;100.00;100591.50;4469781;32;20084;-67
2022/06/16 03:32:41;;;;;;;5.47;3.95;;;;;;;16.98;100.00;100585.03;4470145;32;20552;-67
2022/06/16 03:35:09;;;;;;;7.37;3.60;;;;;;;17.01;100.00;100593.78;4470064;32;20100;-67
2022/06/16 03:37:36;;;;;;;5.47;3.65;;;;;;;17.02;100.00;100595.50;4470135;32;20396;-67
2022/06/16 03:40:05;;;;;;;7.75;4.05;;;;;;;17.08;100.00;100600.63;4469970;32;20115;-67
2022/06/16 03:42:35;;;;;;;6.90;4.22;;;;;;;17.11;100.00;100595.19;4469915;32;20721;-67
2022/06/16 03:45:02;;;;;;;5.35;4.10;;;;;;;17.16;100.00;100606.53;4469623;32;20097;-67
2022/06/16 03:47:30;;;;;;;6.82;4.20;;;;;;;17.23;100.00;100601.84;4469913;32;20092;-67
2022/06/16 03:49:57;;;;;;;5.68;4.25;;;;;;;17.30;100.00;100603.37;4469553;32;20407;-67
2022/06/16 03:52:32;;;;;;;5.50;4.20;;;;;;;17.35;100.00;100601.44;4469701;32;20142;-67
2022/06/16 03:54:59;;;;;;;7.60;4.50;;;;;;;17.48;100.00;100599.16;4469720;32;20600;-67
2022/06/16 03:57:27;;;;;;;6.60;4.80;;;;;;;17.59;100.00;100607.63;4462830;32;20484;-67
2022/06/16 03:59:56;;;;;;;9.75;5.50;;;;;;;17.68;100.00;100599.31;4461957;32;20092;-67
2022/06/16 04:02:23;;;;;;;7.97;5.10;;;;;;;17.79;100.00;100614.06;4457067;32;20147;-67
2022/06/16 04:04:51;;;;;;;8.90;4.57;;;;;;;17.91;100.00;100608.25;4454190;32;20123;-67
2022/06/16 04:07:19;;;;;;;12.35;5.60;;;;;;;18.07;100.00;100609.38;4453778;32;20084;-67
2022/06/16 04:09:48;;;;;;;6.65;5.28;;;;;;;18.06;100.00;100609.47;4453984;32;20453;-67
2022/06/16 04:12:16;;;;;;;9.48;5.68;;;;;;;18.26;100.00;100619.31;4453928;32;20476;-67
2022/06/16 04:14:44;;;;;;;14.52;5.00;;;;;;;18.27;99.33;100621.06;4457760;32;20532;-67
2022/06/16 04:17:11;;;;;;;14.93;5.22;;;;;;;18.51;97.28;100619.19;4461606;32;20440;-67
2022/06/16 04:20:11;;;;;;;14.27;5.40;;;;;;;18.59;96.60;100614.44;4458258;32;20753;-67
2022/06/16 04:22:28;;;;;;;15.27;5.87;;;;;;;18.63;96.62;100618.72;4461237;32;20158;-67
2022/06/16 04:24:55;;;;;;;14.40;5.70;;;;;;;18.75;95.15;100620.88;4453746;32;20105;-67
2022/06/16 04:27:23;;;;;;;12.07;6.15;;;;;;;18.94;93.80;100628.13;4460950;32;20096;-67
2022/06/16 04:29:52;;;;;;;10.60;5.65;;;;;;;19.02;92.13;100624.19;4461354;32;20097;-67
2022/06/16 04:32:19;;;;;;;17.73;5.40;;;;;;;19.21;91.02;100621.59;4460019;32;20105;-67
2022/06/16 04:34:48;;;;;;;8.25;5.20;;;;;;;19.33;88.45;100614.84;4454869;32;20081;-67
2022/06/16 04:37:16;;;;;;;10.93;5.72;;;;;;;19.42;88.18;100625.12;4453360;32;20428;-67
2022/06/16 04:39:47;;;;;;;7.15;5.07;;;;;;;19.51;85.12;100618.50;4465935;32;20415;-67
2022/06/16 04:42:15;;;;;;;20.23;5.72;;;;;;;19.57;84.82;100624.41;4469069;32;20512;-67
2022/06/16 04:44:43;;;;;;;11.98;5.85;;;;;;;19.65;84.91;100618.78;4468899;32;20215;-67
2022/06/16 04:47:12;;;;;;;6.35;4.87;;;;;;;19.82;84.27;100620.66;4468877;32;20072;-67
2022/06/16 04:49:40;;;;;;;11.52;4.75;;;;;;;19.89;83.76;100618.56;4468562;32;20080;-67
2022/06/16 04:52:08;;;;;;;13.07;7.30;;;;;;;20.01;81.78;100621.53;4468727;32;20115;-67
2022/06/16 04:54:37;;;;;;;11.05;6.72;;;;;;;20.03;82.88;100624.13;4469751;32;20122;-67
2022/06/16 04:57:06;;;;;;;8.55;4.90;;;;;;;20.15;82.50;100623.56;4463186;32;20088;-67
2022/06/16 04:59:36;;;;;;;10.10;5.07;;;;;;;20.29;80.95;100621.09;4459126;32;20092;-67
2022/06/16 05:02:04;;;;;;;9.75;5.30;;;;;;;20.32;80.58;100617.41;4457150;32;20101;-67
2022/06/16 05:04:32;;;;;;;7.78;5.37;;;;;;;20.40;79.57;100620.56;4461124;32;20134;-67
2022/06/16 05:07:01;;;;;;;14.73;5.32;;;;;;;20.40;81.00;100622.38;4448958;32;20429;-68
2022/06/16 05:09:31;;;;;;;12.32;5.35;;;;;;;20.70;78.65;100622.69;4460042;32;20492;-67
2022/06/16 05:12:00;;;;;;;6.90;5.15;;;;;;;20.84;77.44;100613.97;4457985;32;20094;-67
2022/06/16 05:14:28;;;;;;;11.02;4.80;;;;;;;20.88;77.16;100615.53;4453301;32;20160;-67
2022/06/16 05:16:56;;;;;;;15.60;5.45;;;;;;;21.08;74.73;100618.06;4468410;32;20091;-67
2022/06/16 05:19:24;;;;;;;8.20;5.18;;;;;;;20.99;76.29;100621.25;4468503;32;20104;-67
2022/06/16 05:21:53;;;;;;;7.15;4.80;;;;;;;21.18;75.37;100619.31;4453853;32;20153;-67
2022/06/16 05:24:21;;;;;;;14.05;4.62;;;;;;;21.37;75.58;100616.56;4468500;32;20096;-67
2022/06/16 05:26:48;;;;;;;10.73;5.22;;;;;;;21.46;73.97;100618.78;4470022;32;20111;-68
2022/06/16 05:29:16;;;;;;;12.70;5.20;;;;;;;21.40;73.28;100610.19;4470641;32;20161;-68
2022/06/16 05:31:44;;;;;;;15.00;4.97;;;;;;;21.35;73.26;100615.81;4470845;32;20097;-67
2022/06/16 05:34:13;;;;;;;9.52;3.80;;;;;;;21.38;73.22;100612.09;4470604;32;20147;-67
2022/06/16 05:36:43;;;;;;;10.52;4.68;;;;;;;21.59;71.57;100619.00;4470626;32;20106;-68
2022/06/16 05:39:11;;;;;;;8.68;4.45;;;;;;;21.81;69.58;100617.81;4470550;32;20096;-68
2022/06/16 05:41:39;;;;;;;12.27;4.32;;;;;;;21.88;70.34;100614.72;4470674;32;20134;-68
2022/06/16 05:44:08;;;;;;;13.62;4.62;;;;;;;22.03;69.75;100612.12;4470419;32;20203;-68
2022/06/16 05:46:37;;;;;;;15.70;4.75;;;;;;;22.02;68.62;100610.41;4470654;32;20080;-68
2022/06/16 05:49:04;;;;;;;9.82;4.05;;;;;;;22.27;67.55;100610.78;4470671;32;20096;-68
2022/06/16 05:51:32;;;;;;;14.87;4.50;;;;;;;22.39;66.07;100610.06;4470327;32;20089;-68
2022/06/16 05:53:59;;;;;;;13.10;4.00;;;;;;;22.31;67.21;100611.47;4470661;32;20161;-68
2022/06/16 05:56:27;;;;;;;12.07;4.00;;;;;;;22.51;65.17;100608.50;4468035;32;20137;-68
2022/06/16 05:58:55;;;;;;;14.63;4.30;;;;;;;22.66;63.82;100609.44;4463444;32;20122;-68
2022/06/16 06:01:23;;;;;;;9.85;3.70;;;;;;;22.77;64.59;100611.50;4470448;32;20116;-68
2022/06/16 06:03:52;;;;;;;11.88;4.90;;;;;;;22.69;65.26;100616.47;4465668;32;20463;-68
2022/06/16 06:06:20;;;;;;;14.15;4.35;;;;;;;22.79;64.84;100610.44;4464093;32;20455;-68
2022/06/16 06:17:19;;;;;;;8.85;3.30;;;;;;;23.67;64.06;100606.03;4463407;32;20089;-68
2022/06/16 06:19:47;;;;;;;9.95;3.97;;;;;;;23.83;61.02;100604.09;4464263;32;20215;-68
2022/06/16 06:22:19;;;;;;;10.95;3.20;;;;;;;23.91;60.04;100602.75;4454098;32;20104;-68
2022/06/16 06:24:50;;;;;;;9.25;3.30;;;;;;;24.09;59.13;100609.63;4454647;32;20104;-68
2022/06/16 06:27:23;;;;;;;8.60;3.03;;;;;;;24.22;58.05;100615.09;4458118;32;20089;-68
2022/06/16 06:29:51;;;;;;;11.98;3.30;;;;;;;24.40;57.04;100608.53;4462265;32;20552;-68
2022/06/16 06:32:20;;;;;;;7.05;2.70;;;;;;;24.48;58.04;100599.94;4466488;32;20161;-68
2022/06/16 06:34:48;;;;;;;9.50;2.92;;;;;;;24.60;56.36;100604.53;4470142;32;20126;-68
2022/06/16 06:37:19;;;;;;;7.78;2.80;;;;;;;24.72;55.77;100614.47;4469961;32;20149;-68
2022/06/16 06:39:46;;;;;;;5.93;2.55;;;;;;;24.79;55.98;100612.22;4469874;32;20742;-68
2022/06/16 06:42:13;;;;;;;3.45;2.53;;;;;;;24.89;53.88;100602.56;4469993;32;20128;-68
2022/06/16 06:44:42;;;;;;;4.62;2.33;;;;;;;25.03;53.36;100609.69;4470294;32;20122;-68
2022/06/16 06:47:17;;;;;;;23.65;3.75;;;;;;;24.97;54.20;100615.50;4466050;32;20468;-68
2022/06/16 06:49:45;;;;;;;6.03;2.83;;;;;;;25.08;54.73;100607.53;4463253;32;20123;-68
2022/06/16 06:52:13;;;;;;;7.87;2.78;;;;;;;25.23;53.47;100605.63;4470114;32;20092;-68
2022/06/16 06:54:43;;;;;;;13.95;3.10;;;;;;;25.15;54.15;100603.47;4470053;32;20105;-68
2022/06/16 06:57:13;;;;;;;7.95;3.20;;;;;;;25.34;53.18;100605.78;4467625;32;20157;-68
2022/06/16 06:59:40;;;;;;;5.90;2.83;;;;;;;25.57;54.34;100597.88;4460912;32;20097;-68
2022/06/16 07:02:11;;;;;;;7.20;2.62;;;;;;;25.81;54.89;100603.41;4462039;32;20084;-68
2022/06/16 07:04:40;;;;;;;6.60;2.70;;;;;;;25.95;53.63;100608.66;4454142;32;20097;-68
2022/06/16 07:07:13;;;;;;;9.05;3.05;;;;;;;26.06;54.41;100605.19;4456236;32;20085;-68
2022/06/16 07:09:41;;;;;;;7.65;3.17;;;;;;;26.24;53.54;100614.62;4460460;32;20124;-68
2022/06/16 07:12:13;;;;;;;6.12;2.97;;;;;;;26.36;53.05;100612.84;4456573;32;20533;-68
2022/06/16 07:14:44;;;;;;;13.07;3.00;;;;;;;26.21;52.34;100604.91;4461436;32;20127;-68
2022/06/16 07:17:12;;;;;;;5.40;2.72;;;;;;;26.47;53.18;100615.66;4470525;32;20077;-68
2022/06/16 07:19:40;;;;;;;11.90;2.95;;;;;;;26.38;52.39;100609.06;4470668;32;20118;-68
2022/06/16 07:22:08;;;;;;;11.20;3.45;;;;;;;26.42;52.01;100604.28;4470915;32;20440;-68
2022/06/16 07:24:36;;;;;;;8.55;3.10;;;;;;;26.62;52.94;100597.44;4470550;32;20104;-68
2022/06/16 07:27:04;;;;;;;8.07;2.53;;;;;;;26.85;53.46;100601.06;4463339;32;20138;-68
2022/06/16 07:29:32;;;;;;;9.57;2.80;;;;;;;26.80;52.25;100597.88;4454644;32;20126;-68
2022/06/16 07:32:06;;;;;;;6.95;2.50;;;;;;;26.85;51.78;100596.53;4449550;32;20100;-68
2022/06/16 07:34:33;;;;;;;7.45;2.92;;;;;;;26.84;49.78;100605.63;4461567;32;20101;-68
2022/06/16 07:37:02;;;;;;;9.00;2.55;;;;;;;26.96;49.81;100600.25;4462567;32;20479;-68
2022/06/16 07:39:29;;;;;;;9.55;3.17;;;;;;;27.29;48.50;100594.09;4460887;32;20152;-68
2022/06/16 07:41:56;;;;;;;5.80;2.65;;;;;;;27.28;50.47;100589.66;4455028;32;20166;-68
2022/06/16 07:44:23;;;;;;;8.65;2.30;;;;;;;27.31;49.52;100590.28;4455086;32;20177;-69
2022/06/16 07:46:51;;;;;;;6.90;2.42;;;;;;;27.39;49.63;100589.69;4453704;32;20096;-68
2022/06/16 07:49:22;;;;;;;5.55;2.10;;;;;;;27.59;46.68;100593.50;4453408;32;20161;-69
2022/06/16 07:51:51;;;;;;;8.85;2.62;;;;;;;27.54;46.18;100596.59;4462877;32;20537;-69
2022/06/16 07:54:19;;;;;;;9.00;2.50;;;;;;;27.32;48.58;100593.88;4455142;31;20100;-68
2022/06/16 07:57:07;;;;;;;6.68;2.42;;;;;;;27.46;46.82;100590.06;4453915;32;20080;-69
2022/06/16 07:59:34;;;;;;;2.53;2.17;;;;;;;27.66;47.09;100586.63;4454590;32;20193;-69
2022/06/16 08:02:02;;;;;;;8.85;2.55;;;;;;;27.90;46.67;100596.50;4454743;32;20093;-69
2022/06/16 08:04:30;;;;;;;4.25;2.00;;;;;;;28.07;46.20;100594.13;4454788;32;20123;-69
2022/06/16 08:07:00;;;;;;;3.33;2.20;;;;;;;28.46;45.00;100588.28;4454854;32;20769;-69
2022/06/16 08:09:31;;;;;;;6.70;2.40;;;;;;;28.37;43.38;100581.72;4454899;32;20338;-69
2022/06/16 08:12:08;;;;;;;2.60;1.85;;;;;;;28.41;43.51;100587.78;4454468;32;21024;-69
2022/06/16 08:14:40;;;;;;;5.07;1.65;;;;;;;28.42;42.82;100578.69;4457833;31;20118;-68
2022/06/16 08:17:12;;;;;;;13.07;2.62;;;;;;;28.28;41.41;100579.81;4486046;31;20193;-69
2022/06/16 08:19:40;;;;;;;6.70;1.83;;;;;;;28.28;43.19;100586.09;4485883;31;20079;-69
2022/06/16 08:22:08;;;;;;;5.62;1.48;;;;;;;28.81;40.78;100582.59;4486023;31;20160;-69
2022/06/16 08:24:36;;;;;;;3.47;1.70;;;;;;;28.90;39.21;100591.78;4485460;31;20104;-70
2022/06/16 08:27:04;;;;;;;6.43;1.90;;;;;;;28.96;37.24;100578.56;4466833;31;20081;-69
2022/06/16 08:29:32;;;;;;;3.87;1.60;;;;;;;28.94;38.79;100582.38;4461150;32;20088;-69
2022/06/16 08:31:59;;;;;;;8.68;2.10;;;;;;;29.48;36.84;100575.91;4458895;32;20089;-69
2022/06/16 08:34:27;;;;;;;5.93;1.37;;;;;;;29.86;36.59;100583.41;4457898;32;20152;-69
2022/06/16 08:36:54;;;;;;;5.07;1.60;;;;;;;29.88;36.05;100592.25;4460720;32;20085;-69
2022/06/16 08:39:21;;;;;;;10.57;1.50;;;;;;;29.52;34.67;100589.06;4461736;32;20153;-69
2022/06/16 08:41:54;;;;;;;4.78;1.87;;;;;;;29.63;36.81;100588.16;4465470;32;20157;-70
2022/06/16 08:44:24;;;;;;;3.47;1.55;;;;;;;29.58;35.50;100586.78;4454971;32;20089;-69
2022/06/16 08:47:15;;;;;;;10.15;1.80;;;;;;;29.91;35.53;100593.84;4462746;32;20100;-69
2022/06/16 08:49:50;;;;;;;3.28;1.25;;;;;;;29.80;33.65;100594.81;4459802;32;20139;-69
2022/06/16 08:52:41;;;;;;;2.45;1.10;;;;;;;30.00;33.77;100591.16;4446862;32;20553;-69
2022/06/16 08:55:27;;;;;;;1.30;1.20;;;;;;;30.37;33.94;100584.25;4464147;32;20097;-69
2022/06/16 08:58:10;;;;;;;3.72;1.60;;;;;;;30.57;32.97;100585.13;4466696;32;20088;-69
2022/06/16 09:00:53;;;;;;;7.60;1.60;;;;;;;30.16;31.75;100592.47;4465984;32;20084;-69
2022/06/16 09:03:46;;;;;;;2.17;1.40;;;;;;;30.27;32.63;100588.81;4461627;32;20119;-69
2022/06/16 09:06:49;;;;;;;4.18;1.58;;;;;;;30.24;33.77;100595.38;4455424;32;20555;-69
2022/06/16 09:12:49;;;;;;;4.62;1.60;;;;;;;29.87;34.03;100585.09;4453420;32;20195;-69
2022/06/16 09:15:53;;;;;;;6.45;1.92;;;;;;;30.36;33.22;100591.56;4460852;32;20108;-69
2022/06/16 09:18:57;;;;;;;2.10;1.45;;;;;;;30.67;33.87;100589.59;4469211;32;20463;-69
2022/06/16 09:21:49;;;;;;;1.98;1.30;;;;;;;31.11;33.72;100580.97;4461973;32;20080;-69
2022/06/16 09:24:53;;;;;;;2.40;1.40;;;;;;;31.39;31.67;100574.62;4462668;32;20170;-69
2022/06/16 09:27:37;;;;;;;3.87;1.52;;;;;;;30.85;32.09;100576.16;4461361;32;20100;-70
2022/06/16 09:30:27;;;;;;;6.18;1.77;;;;;;;30.65;32.62;100572.53;4460833;32;20162;-70
2022/06/16 09:33:04;;;;;;;1.67;1.40;;;;;;;30.47;33.45;100572.37;4462896;32;20781;-70
2022/06/16 09:35:43;;;;;;;11.40;1.40;;;;;;;30.83;32.13;100574.56;4458755;32;20149;-70
2022/06/16 09:38:23;;;;;;;4.03;1.40;;;;;;;31.02;31.79;100579.97;4467610;32;20088;-70
2022/06/16 09:41:04;;;;;;;3.17;1.35;;;;;;;30.90;31.76;100582.00;4471188;32;20793;-70
2022/06/16 09:43:39;;;;;;;8.38;1.92;;;;;;;30.97;33.24;100575.97;4453106;32;20148;-70
2022/06/16 09:46:23;;;;;;;4.35;1.65;;;;;;;31.19;32.51;100559.31;4455823;32;20084;-70
2022/06/16 09:49:20;;;;;;;3.00;1.30;;;;;;;31.26;32.35;100549.53;4455272;32;20102;-69
2022/06/16 09:52:22;;;;;;;6.15;2.22;;;;;;;30.36;33.11;100545.34;4455607;32;20096;-69
2022/06/16 09:54:55;;;;;;;1.60;1.35;;;;;;;30.05;34.72;100552.69;4455542;32;20146;-70
2022/06/16 09:57:32;;;;;;;5.57;1.30;;;;;;;30.23;33.00;100552.91;4469260;32;20076;-69
2022/06/16 10:00:15;;;;;;;5.07;1.42;;;;;;;30.77;33.45;100554.22;4471423;32;20084;-69
2022/06/16 10:02:52;;;;;;;3.35;1.50;;;;;;;30.46;32.12;100556.19;4471034;32;20180;-69
2022/06/16 10:05:41;;;;;;;5.25;1.23;;;;;;;31.41;31.13;100549.94;4471460;32;20080;-69
2022/06/16 10:08:24;;;;;;;3.00;1.12;;;;;;;32.08;30.83;100561.56;4471280;32;20080;-69
2022/06/16 10:11:01;;;;;;;1.40;1.30;;;;;;;31.97;29.24;100548.16;4470941;32;20141;-69
2022/06/16 10:13:43;;;;;;;2.40;1.50;;;;;;;31.81;29.15;100551.53;4470631;32;20097;-69
2022/06/16 10:16:12;;;;;;;1.77;1.30;;;;;;;32.10;29.72;100559.56;4459370;32;20077;-69
2022/06/16 10:18:40;;;;;;;3.30;1.30;;;;;;;31.81;28.92;100546.06;4456072;32;20156;-69
2022/06/16 10:21:09;;;;;;;5.40;1.40;;;;;;;31.56;29.95;100537.59;4463865;32;20169;-69
2022/06/16 10:23:50;;;;;;;4.03;1.52;;;;;;;32.20;30.07;100537.69;4464383;32;20101;-69
2022/06/16 10:26:18;;;;;;;2.37;1.15;;;;;;;32.63;28.89;100542.37;4455290;32;20784;-68
2022/06/16 10:29:04;;;;;;;2.65;1.50;;;;;;;32.03;28.35;100550.28;4455509;32;20448;-69
2022/06/16 10:31:40;;;;;;;5.20;1.60;;;;;;;31.87;29.94;100546.34;4464251;32;20112;-68
2022/06/16 10:34:29;;;;;;;0.80;0.80;;;;;;;32.70;28.09;100548.91;4471040;32;20166;-68
2022/06/16 10:37:04;;;;;;;1.50;1.00;;;;;;;32.63;27.24;100539.66;4471147;32;20680;-69
2022/06/16 10:39:46;;;;;;;8.85;1.10;;;;;;;32.85;27.10;100544.59;4470710;32;20088;-68
2022/06/16 10:42:29;;;;;;;3.53;1.50;;;;;;;33.12;28.43;100545.53;4471064;32;20111;-69
2022/06/16 10:45:02;;;;;;;3.80;1.30;;;;;;;33.25;27.65;100545.97;4470174;32;20112;-69
2022/06/16 10:47:57;;;;;;;12.20;1.52;;;;;;;33.42;26.81;100543.31;4469993;32;20180;-69
2022/06/16 10:50:34;;;;;;;5.53;1.58;;;;;;;33.24;28.34;100546.09;4460723;32;20100;-68
2022/06/16 10:53:12;;;;;;;5.80;1.42;;;;;;;33.43;26.40;100550.47;4463364;32;20119;-69
2022/06/16 10:55:47;;;;;;;7.43;1.65;;;;;;;33.77;28.25;100545.87;4459237;32;20566;-68
2022/06/16 10:58:25;;;;;;;1.85;1.27;;;;;;;33.51;26.42;100540.50;4455091;32;20492;-68
2022/06/16 11:01:18;;;;;;;1.20;1.20;;;;;;;32.62;27.30;100546.13;4455306;32;20420;-69
2022/06/16 11:04:08;;;;;;;7.72;1.50;;;;;;;32.18;28.12;100545.16;4455300;32;20518;-69
2022/06/16 11:06:45;;;;;;;1.92;1.58;;;;;;;32.38;28.48;100530.34;4456603;32;20120;-69
2022/06/16 11:09:19;;;;;;;4.32;1.30;;;;;;;33.73;27.56;100533.56;4455651;32;20467;-69
2022/06/16 11:11:58;;;;;;;2.47;1.30;;;;;;;33.34;26.58;100526.88;4460059;32;20093;-69
2022/06/16 11:14:49;;;;;;;3.47;1.30;;;;;;;33.42;27.58;100522.28;4464371;32;20096;-70
2022/06/16 11:17:38;;;;;;;4.22;1.33;;;;;;;34.23;27.73;100513.56;4454763;32;20126;-69
2022/06/16 11:20:06;;;;;;;6.47;1.60;;;;;;;33.31;26.91;100509.78;4454011;32;20073;-70
2022/06/16 11:22:42;;;;;;;5.55;1.50;;;;;;;33.75;27.98;100512.41;4454605;32;20936;-70
2022/06/16 11:25:39;;;;;;;6.65;1.30;;;;;;;33.91;27.09;100506.13;4453040;32;20559;-69
2022/06/16 11:28:10;;;;;;;;;;;;;;;34.22;26.66;100498.19;4454539;32;20104;-69
2022/06/16 11:30:50;;;;;;;3.75;1.40;;;;;;;34.53;26.75;100492.09;4459624;31;19983;-70
2022/06/16 11:36:22;;;;;;;4.22;1.50;;;;;;;35.24;25.75;100484.16;4470330;32;20703;-69
2022/06/16 11:39:10;;;;;;;5.72;1.33;;;;;;;34.81;26.03;100476.16;4470236;32;20088;-69
2022/06/16 11:41:43;;;;;;;3.42;1.40;;;;;;;35.51;25.02;100483.72;4469999;32;20118;-69
2022/06/16 11:44:54;;;;;;;2.08;1.50;;;;;;;35.61;24.78;100487.09;4470183;32;20080;-70
2022/06/16 11:47:24;;;;;;;3.50;1.35;;;;;;;37.97;24.52;100479.62;4404965;32;20148;-70
2022/06/16 11:50:10;;;;;;;4.00;1.70;;;;;;;39.25;23.69;100475.91;4462469;32;20823;-70
2022/06/16 11:53:20;;;;;;;4.68;1.12;;;;;;;40.00;21.81;100470.50;4441473;32;20228;-70
2022/06/16 11:56:15;;;;;;;4.75;1.17;;;;;;;40.44;20.76;100464.44;4373117;32;20098;-68
2022/06/16 11:59:26;;;;;;;2.60;1.77;;;;;;;40.60;23.05;100452.12;4456612;32;20130;-67
2022/06/16 12:02:20;;;;;;;5.57;1.48;;;;;;;41.18;22.18;100452.28;4435337;32;20108;-67
2022/06/16 12:05:06;;;;;;;1.48;1.35;;;;;;;40.32;21.13;100447.66;4458501;32;20485;-67
2022/06/16 12:08:00;;;;;;;5.62;1.70;;;;;;;39.34;22.04;100449.03;4460832;32;20085;-66
2022/06/16 12:10:59;;;;;;;2.35;1.60;;;;;;;39.40;21.08;100442.69;4462755;32;20096;-65
2022/06/16 12:13:29;;;;;;;5.95;1.83;;;;;;;41.10;20.48;100444.22;4456099;32;20104;-66
2022/06/16 12:16:07;;;;;;;7.72;1.67;;;;;;;42.07;20.78;100449.78;4461601;32;20088;-66
2022/06/16 12:19:23;;;;;;;3.10;1.58;;;;;;;42.64;19.33;100443.16;4460778;32;20149;-65